To NAV CANADA Home Page Login to a new session Search on AWWS site Feedback and Comments Disclaimer Vers la page française équivalente Tips FAQ What's new on the site To the Forecasts and Observations / NOTAM section To "File a Flight Plan" website Publications and other links Update of the User's profile FIC Telephone Numbers My Weather Data Folder Route Weather Data Regional Weather Data Local Weather Data To the Forecasts and Observations / NOTAM section
Request Generated 12/04/2016 at 22:21:13 UTC . Weather information available at that time is displayed.

METAR/TAF

DAWSON CITY/YT    

METAR CYDA 042200Z 24004KT 20SM OVC074 M19/M23 A3052 RMK AC8 SLP379=
METAR CYDA 042100Z 23004KT 20SM OVC074 M19/M23 A3050 RMK AC8 SLP373=
SPECI CYDA 042036Z 23004KT 20SM OVC074 M19/M23 A3049 RMK AC8 SLP370=
METAR CYDA 042000Z 23005KT 20SM -SN OVC076 M19/M23 A3048 RMK AC8
SLP366=

TAF CYDA 041738Z 0418/0424 24005KT P6SM OVC070 TEMPO 0418/0424 5SM
-SN OVC040
RMK NXT FCST WILL BE ISSUED AT 051645Z=
Your time UTC time
Weather data provided by Environment Canada and NAV CANADA